sensor_id;sensor_type;location;lat;lon;timestamp;P1;durP1;ratioP1;P2;durP2;ratioP2
11604;SDS011;5858;43.076;25.626;2024-02-16T00:03:53;19.63;;;14.13;;
11604;SDS011;5858;43.076;25.626;2024-02-16T00:07:12;19.43;;;14.50;;
11604;SDS011;5858;43.076;25.626;2024-02-16T00:13:51;19.47;;;14.93;;
11604;SDS011;5858;43.076;25.626;2024-02-16T00:20:46;19.80;;;14.87;;
11604;SDS011;5858;43.076;25.626;2024-02-16T00:23:54;18.20;;;14.87;;
11604;SDS011;5858;43.076;25.626;2024-02-16T00:27:17;18.63;;;14.63;;
11604;SDS011;5858;43.076;25.626;2024-02-16T00:40:48;19.50;;;14.03;;
11604;SDS011;5858;43.076;25.626;2024-02-16T01:07:54;17.47;;;13.10;;
11604;SDS011;5858;43.076;25.626;2024-02-16T01:15:17;16.70;;;13.43;;
11604;SDS011;5858;43.076;25.626;2024-02-16T02:06:04;18.10;;;12.93;;
11604;SDS011;5858;43.076;25.626;2024-02-16T02:39:22;17.50;;;13.70;;
11604;SDS011;5858;43.076;25.626;2024-02-16T02:45:54;14.17;;;12.67;;
11604;SDS011;5858;43.076;25.626;2024-02-16T02:52:17;15.83;;;13.27;;
11604;SDS011;5858;43.076;25.626;2024-02-16T02:55:22;16.30;;;13.27;;
11604;SDS011;5858;43.076;25.626;2024-02-16T02:58:30;18.97;;;12.80;;
11604;SDS011;5858;43.076;25.626;2024-02-16T03:01:21;15.43;;;13.10;;
11604;SDS011;5858;43.076;25.626;2024-02-16T03:04:39;15.13;;;12.63;;
11604;SDS011;5858;43.076;25.626;2024-02-16T03:07:55;16.50;;;13.20;;
11604;SDS011;5858;43.076;25.626;2024-02-16T03:14:39;17.57;;;14.30;;
11604;SDS011;5858;43.076;25.626;2024-02-16T03:27:27;19.40;;;13.80;;
11604;SDS011;5858;43.076;25.626;2024-02-16T03:30:14;17.00;;;13.37;;
11604;SDS011;5858;43.076;25.626;2024-02-16T03:34:15;17.37;;;13.80;;
11604;SDS011;5858;43.076;25.626;2024-02-16T03:39:56;19.17;;;14.47;;
11604;SDS011;5858;43.076;25.626;2024-02-16T03:48:21;18.97;;;13.63;;
11604;SDS011;5858;43.076;25.626;2024-02-16T03:50:49;14.60;;;12.53;;
11604;SDS011;5858;43.076;25.626;2024-02-16T03:56:38;14.93;;;12.53;;
11604;SDS011;5858;43.076;25.626;2024-02-16T03:59:37;15.67;;;12.60;;
11604;SDS011;5858;43.076;25.626;2024-02-16T04:06:12;16.40;;;13.57;;
11604;SDS011;5858;43.076;25.626;2024-02-16T04:09:15;15.80;;;12.97;;
11604;SDS011;5858;43.076;25.626;2024-02-16T04:12:17;17.43;;;13.43;;
11604;SDS011;5858;43.076;25.626;2024-02-16T04:15:01;15.77;;;12.97;;
11604;SDS011;5858;43.076;25.626;2024-02-16T04:21:25;18.47;;;13.70;;
11604;SDS011;5858;43.076;25.626;2024-02-16T04:24:20;17.83;;;13.60;;
11604;SDS011;5858;43.076;25.626;2024-02-16T04:27:14;20.23;;;13.27;;
11604;SDS011;5858;43.076;25.626;2024-02-16T04:30:10;21.47;;;15.10;;
11604;SDS011;5858;43.076;25.626;2024-02-16T04:35:56;17.50;;;13.93;;
11604;SDS011;5858;43.076;25.626;2024-02-16T04:41:51;16.93;;;13.33;;
11604;SDS011;5858;43.076;25.626;2024-02-16T04:45:42;17.03;;;12.93;;
11604;SDS011;5858;43.076;25.626;2024-02-16T04:49:07;19.00;;;13.67;;
11604;SDS011;5858;43.076;25.626;2024-02-16T04:51:35;16.97;;;13.10;;
11604;SDS011;5858;43.076;25.626;2024-02-16T04:54:36;16.03;;;13.80;;
11604;SDS011;5858;43.076;25.626;2024-02-16T05:00:31;17.87;;;13.50;;
11604;SDS011;5858;43.076;25.626;2024-02-16T05:03:28;17.17;;;13.40;;
11604;SDS011;5858;43.076;25.626;2024-02-16T05:06:11;17.60;;;13.80;;
11604;SDS011;5858;43.076;25.626;2024-02-16T05:11:40;16.00;;;12.37;;
11604;SDS011;5858;43.076;25.626;2024-02-16T05:14:39;19.27;;;14.30;;
11604;SDS011;5858;43.076;25.626;2024-02-16T05:17:48;22.20;;;14.83;;
11604;SDS011;5858;43.076;25.626;2024-02-16T05:20:52;19.47;;;14.47;;
11604;SDS011;5858;43.076;25.626;2024-02-16T05:23:48;25.30;;;15.17;;
11604;SDS011;5858;43.076;25.626;2024-02-16T05:26:52;29.93;;;20.13;;
11604;SDS011;5858;43.076;25.626;2024-02-16T05:33:49;25.20;;;17.10;;
11604;SDS011;5858;43.076;25.626;2024-02-16T05:38:16;19.83;;;14.57;;
11604;SDS011;5858;43.076;25.626;2024-02-16T05:54:22;19.43;;;14.10;;
11604;SDS011;5858;43.076;25.626;2024-02-16T06:02:13;22.97;;;14.87;;
11604;SDS011;5858;43.076;25.626;2024-02-16T06:05:02;17.47;;;13.93;;
11604;SDS011;5858;43.076;25.626;2024-02-16T06:07:46;19.03;;;14.13;;
11604;SDS011;5858;43.076;25.626;2024-02-16T06:13:45;20.73;;;13.07;;
11604;SDS011;5858;43.076;25.626;2024-02-16T06:16:51;23.27;;;13.67;;
11604;SDS011;5858;43.076;25.626;2024-02-16T06:19:45;18.10;;;13.83;;
11604;SDS011;5858;43.076;25.626;2024-02-16T06:23:04;18.97;;;13.30;;
11604;SDS011;5858;43.076;25.626;2024-02-16T06:42:58;11.07;;;8.37;;
11604;SDS011;5858;43.076;25.626;2024-02-16T06:45:28;11.87;;;8.83;;
11604;SDS011;5858;43.076;25.626;2024-02-16T06:58:00;17.50;;;11.70;;
11604;SDS011;5858;43.076;25.626;2024-02-16T07:11:20;48.20;;;32.17;;
11604;SDS011;5858;43.076;25.626;2024-02-16T07:50:43;24.53;;;14.50;;
11604;SDS011;5858;43.076;25.626;2024-02-16T07:53:10;24.80;;;16.73;;
11604;SDS011;5858;43.076;25.626;2024-02-16T07:55:45;18.50;;;12.83;;
11604;SDS011;5858;43.076;25.626;2024-02-16T07:58:33;20.33;;;14.77;;
11604;SDS011;5858;43.076;25.626;2024-02-16T08:01:11;16.20;;;11.57;;
11604;SDS011;5858;43.076;25.626;2024-02-16T08:10:13;16.20;;;10.07;;
11604;SDS011;5858;43.076;25.626;2024-02-16T08:13:05;10.20;;;8.13;;
11604;SDS011;5858;43.076;25.626;2024-02-16T08:15:35;14.03;;;11.60;;
11604;SDS011;5858;43.076;25.626;2024-02-16T08:29:13;10.17;;;7.27;;
11604;SDS011;5858;43.076;25.626;2024-02-16T08:31:14;9.77;;;7.07;;
11604;SDS011;5858;43.076;25.626;2024-02-16T08:33:51;12.27;;;7.07;;
11604;SDS011;5858;43.076;25.626;2024-02-16T08:36:47;12.27;;;7.33;;
11604;SDS011;5858;43.076;25.626;2024-02-16T08:39:28;9.43;;;6.77;;
11604;SDS011;5858;43.076;25.626;2024-02-16T08:42:16;9.80;;;6.57;;
11604;SDS011;5858;43.076;25.626;2024-02-16T08:44:56;8.20;;;6.40;;
11604;SDS011;5858;43.076;25.626;2024-02-16T08:47:40;7.97;;;7.17;;
11604;SDS011;5858;43.076;25.626;2024-02-16T08:54:11;9.97;;;7.70;;
11604;SDS011;5858;43.076;25.626;2024-02-16T08:57:31;10.00;;;7.70;;
11604;SDS011;5858;43.076;25.626;2024-02-16T09:00:12;27.93;;;17.27;;
11604;SDS011;5858;43.076;25.626;2024-02-16T09:02:52;11.80;;;7.47;;
11604;SDS011;5858;43.076;25.626;2024-02-16T09:15:55;9.90;;;7.37;;
11604;SDS011;5858;43.076;25.626;2024-02-16T09:18:59;11.43;;;6.80;;
11604;SDS011;5858;43.076;25.626;2024-02-16T09:25:02;10.53;;;6.80;;
11604;SDS011;5858;43.076;25.626;2024-02-16T09:27:46;7.77;;;6.33;;
11604;SDS011;5858;43.076;25.626;2024-02-16T09:30:13;7.40;;;6.60;;
11604;SDS011;5858;43.076;25.626;2024-02-16T09:32:45;8.03;;;6.17;;
11604;SDS011;5858;43.076;25.626;2024-02-16T09:35:12;7.43;;;6.33;;
11604;SDS011;5858;43.076;25.626;2024-02-16T09:37:40;9.23;;;6.57;;
11604;SDS011;5858;43.076;25.626;2024-02-16T09:40:08;8.30;;;6.33;;
11604;SDS011;5858;43.076;25.626;2024-02-16T09:42:38;21.10;;;11.93;;
11604;SDS011;5858;43.076;25.626;2024-02-16T09:45:12;23.23;;;14.17;;
11604;SDS011;5858;43.076;25.626;2024-02-16T09:47:53;11.03;;;7.70;;
11604;SDS011;5858;43.076;25.626;2024-02-16T09:50:21;8.47;;;5.90;;
11604;SDS011;5858;43.076;25.626;2024-02-16T09:52:51;7.70;;;5.63;;
11604;SDS011;5858;43.076;25.626;2024-02-16T09:55:20;7.63;;;5.00;;
11604;SDS011;5858;43.076;25.626;2024-02-16T09:58:05;7.47;;;5.77;;
11604;SDS011;5858;43.076;25.626;2024-02-16T10:06:53;8.13;;;6.57;;
11604;SDS011;5858;43.076;25.626;2024-02-16T10:43:11;6.93;;;5.70;;
11604;SDS011;5858;43.076;25.626;2024-02-16T10:46:05;10.60;;;6.47;;
11604;SDS011;5858;43.076;25.626;2024-02-16T10:48:34;7.47;;;6.37;;
11604;SDS011;5858;43.076;25.626;2024-02-16T10:51:02;7.00;;;5.97;;
11604;SDS011;5858;43.076;25.626;2024-02-16T10:53:31;9.20;;;6.60;;
11604;SDS011;5858;43.076;25.626;2024-02-16T10:56:00;7.70;;;6.40;;
11604;SDS011;5858;43.076;25.626;2024-02-16T10:58:30;8.87;;;6.50;;
11604;SDS011;5858;43.076;25.626;2024-02-16T11:01:09;9.23;;;7.30;;
11604;SDS011;5858;43.076;25.626;2024-02-16T11:03:47;10.33;;;6.70;;
11604;SDS011;5858;43.076;25.626;2024-02-16T11:09:25;8.17;;;6.53;;
11604;SDS011;5858;43.076;25.626;2024-02-16T11:11:58;7.97;;;6.93;;
11604;SDS011;5858;43.076;25.626;2024-02-16T11:14:37;7.47;;;6.03;;
11604;SDS011;5858;43.076;25.626;2024-02-16T11:17:15;10.73;;;6.93;;
11604;SDS011;5858;43.076;25.626;2024-02-16T11:19:49;8.97;;;6.10;;
11604;SDS011;5858;43.076;25.626;2024-02-16T11:22:17;8.33;;;6.63;;
11604;SDS011;5858;43.076;25.626;2024-02-16T11:24:58;8.07;;;5.90;;
11604;SDS011;5858;43.076;25.626;2024-02-16T11:27:31;7.97;;;6.30;;
11604;SDS011;5858;43.076;25.626;2024-02-16T11:29:59;8.90;;;6.43;;
11604;SDS011;5858;43.076;25.626;2024-02-16T11:32:43;8.33;;;6.77;;
11604;SDS011;5858;43.076;25.626;2024-02-16T11:38:13;8.80;;;6.37;;
11604;SDS011;5858;43.076;25.626;2024-02-16T11:40:56;10.73;;;6.50;;
11604;SDS011;5858;43.076;25.626;2024-02-16T11:43:41;9.93;;;6.83;;
11604;SDS011;5858;43.076;25.626;2024-02-16T12:03:12;7.60;;;5.53;;
11604;SDS011;5858;43.076;25.626;2024-02-16T12:05:49;10.30;;;6.10;;
11604;SDS011;5858;43.076;25.626;2024-02-16T12:12:20;7.33;;;6.10;;
11604;SDS011;5858;43.076;25.626;2024-02-16T12:39:11;11.37;;;7.80;;
11604;SDS011;5858;43.076;25.626;2024-02-16T12:41:43;9.70;;;7.53;;
11604;SDS011;5858;43.076;25.626;2024-02-16T12:47:40;10.20;;;6.57;;
11604;SDS011;5858;43.076;25.626;2024-02-16T12:50:41;7.83;;;6.73;;
11604;SDS011;5858;43.076;25.626;2024-02-16T12:53:22;9.67;;;7.10;;
11604;SDS011;5858;43.076;25.626;2024-02-16T12:56:15;11.30;;;6.60;;
11604;SDS011;5858;43.076;25.626;2024-02-16T12:58:56;9.27;;;5.93;;
11604;SDS011;5858;43.076;25.626;2024-02-16T13:01:34;6.83;;;6.03;;
11604;SDS011;5858;43.076;25.626;2024-02-16T13:04:20;8.70;;;6.60;;
11604;SDS011;5858;43.076;25.626;2024-02-16T13:06:58;7.97;;;5.90;;
11604;SDS011;5858;43.076;25.626;2024-02-16T13:09:31;6.60;;;5.00;;
11604;SDS011;5858;43.076;25.626;2024-02-16T13:12:00;8.83;;;6.23;;
11604;SDS011;5858;43.076;25.626;2024-02-16T13:14:34;6.57;;;5.87;;
11604;SDS011;5858;43.076;25.626;2024-02-16T13:17:03;7.97;;;5.60;;
11604;SDS011;5858;43.076;25.626;2024-02-16T13:19:42;6.37;;;4.87;;
11604;SDS011;5858;43.076;25.626;2024-02-16T13:22:12;8.00;;;5.63;;
11604;SDS011;5858;43.076;25.626;2024-02-16T13:24:45;8.10;;;6.40;;
11604;SDS011;5858;43.076;25.626;2024-02-16T13:27:14;7.97;;;5.60;;
11604;SDS011;5858;43.076;25.626;2024-02-16T13:29:44;11.63;;;6.90;;
11604;SDS011;5858;43.076;25.626;2024-02-16T13:32:14;8.67;;;5.63;;
11604;SDS011;5858;43.076;25.626;2024-02-16T13:34:47;6.60;;;5.70;;
11604;SDS011;5858;43.076;25.626;2024-02-16T13:37:20;9.77;;;6.13;;
11604;SDS011;5858;43.076;25.626;2024-02-16T13:39:48;10.67;;;6.10;;
11604;SDS011;5858;43.076;25.626;2024-02-16T13:42:17;6.90;;;5.90;;
11604;SDS011;5858;43.076;25.626;2024-02-16T13:44:48;8.20;;;6.27;;
11604;SDS011;5858;43.076;25.626;2024-02-16T13:47:16;9.27;;;6.33;;
11604;SDS011;5858;43.076;25.626;2024-02-16T13:49:45;11.27;;;6.60;;
11604;SDS011;5858;43.076;25.626;2024-02-16T13:52:19;7.87;;;6.40;;
11604;SDS011;5858;43.076;25.626;2024-02-16T13:54:50;7.63;;;6.03;;
11604;SDS011;5858;43.076;25.626;2024-02-16T13:57:24;8.90;;;6.20;;
11604;SDS011;5858;43.076;25.626;2024-02-16T13:59:55;8.70;;;6.60;;
11604;SDS011;5858;43.076;25.626;2024-02-16T14:02:27;7.50;;;5.90;;
11604;SDS011;5858;43.076;25.626;2024-02-16T14:04:54;13.03;;;6.90;;
11604;SDS011;5858;43.076;25.626;2024-02-16T14:07:28;9.53;;;6.77;;
11604;SDS011;5858;43.076;25.626;2024-02-16T14:10:19;7.73;;;6.67;;
11604;SDS011;5858;43.076;25.626;2024-02-16T14:12:48;12.63;;;6.43;;
11604;SDS011;5858;43.076;25.626;2024-02-16T14:15:15;7.73;;;6.37;;
11604;SDS011;5858;43.076;25.626;2024-02-16T14:17:44;8.20;;;6.80;;
11604;SDS011;5858;43.076;25.626;2024-02-16T14:20:11;10.00;;;6.93;;
11604;SDS011;5858;43.076;25.626;2024-02-16T14:22:49;10.80;;;7.30;;
11604;SDS011;5858;43.076;25.626;2024-02-16T14:25:20;8.40;;;7.30;;
11604;SDS011;5858;43.076;25.626;2024-02-16T14:27:52;9.53;;;6.77;;
11604;SDS011;5858;43.076;25.626;2024-02-16T14:30:20;10.90;;;6.93;;
11604;SDS011;5858;43.076;25.626;2024-02-16T14:32:50;9.47;;;7.00;;
11604;SDS011;5858;43.076;25.626;2024-02-16T14:35:28;8.70;;;6.10;;
11604;SDS011;5858;43.076;25.626;2024-02-16T14:38:05;8.93;;;7.00;;
11604;SDS011;5858;43.076;25.626;2024-02-16T14:40:37;10.37;;;7.37;;
11604;SDS011;5858;43.076;25.626;2024-02-16T14:43:10;13.43;;;8.87;;
11604;SDS011;5858;43.076;25.626;2024-02-16T14:45:49;10.73;;;7.80;;
11604;SDS011;5858;43.076;25.626;2024-02-16T14:48:19;11.33;;;7.93;;
11604;SDS011;5858;43.076;25.626;2024-02-16T14:50:50;9.93;;;7.33;;
11604;SDS011;5858;43.076;25.626;2024-02-16T14:53:23;9.23;;;6.50;;
11604;SDS011;5858;43.076;25.626;2024-02-16T14:56:03;9.13;;;7.33;;
11604;SDS011;5858;43.076;25.626;2024-02-16T14:58:37;9.77;;;6.97;;
11604;SDS011;5858;43.076;25.626;2024-02-16T15:01:26;9.23;;;7.40;;
11604;SDS011;5858;43.076;25.626;2024-02-16T15:03:56;7.13;;;6.30;;
11604;SDS011;5858;43.076;25.626;2024-02-16T15:07:33;10.57;;;7.57;;
11604;SDS011;5858;43.076;25.626;2024-02-16T15:09:39;8.43;;;6.67;;
11604;SDS011;5858;43.076;25.626;2024-02-16T15:13:12;9.80;;;7.10;;
11604;SDS011;5858;43.076;25.626;2024-02-16T15:22:56;12.73;;;7.27;;
11604;SDS011;5858;43.076;25.626;2024-02-16T15:29:14;10.23;;;6.63;;
11604;SDS011;5858;43.076;25.626;2024-02-16T15:32:10;10.00;;;6.80;;
11604;SDS011;5858;43.076;25.626;2024-02-16T15:35:08;12.93;;;7.57;;
11604;SDS011;5858;43.076;25.626;2024-02-16T15:38:09;11.83;;;8.03;;
11604;SDS011;5858;43.076;25.626;2024-02-16T15:40:37;10.40;;;7.00;;
11604;SDS011;5858;43.076;25.626;2024-02-16T15:43:40;9.73;;;7.40;;
11604;SDS011;5858;43.076;25.626;2024-02-16T15:46:10;10.80;;;7.13;;
11604;SDS011;5858;43.076;25.626;2024-02-16T15:48:38;11.13;;;7.23;;
11604;SDS011;5858;43.076;25.626;2024-02-16T15:51:14;8.60;;;6.80;;
11604;SDS011;5858;43.076;25.626;2024-02-16T15:53:50;12.07;;;7.27;;
11604;SDS011;5858;43.076;25.626;2024-02-16T15:56:28;10.40;;;8.17;;
11604;SDS011;5858;43.076;25.626;2024-02-16T15:59:02;9.83;;;7.47;;
11604;SDS011;5858;43.076;25.626;2024-02-16T16:01:34;10.27;;;7.73;;
11604;SDS011;5858;43.076;25.626;2024-02-16T16:04:04;8.53;;;7.37;;
11604;SDS011;5858;43.076;25.626;2024-02-16T16:06:34;9.53;;;7.27;;
11604;SDS011;5858;43.076;25.626;2024-02-16T16:09:19;11.77;;;7.53;;
11604;SDS011;5858;43.076;25.626;2024-02-16T16:11:54;10.67;;;8.87;;
11604;SDS011;5858;43.076;25.626;2024-02-16T16:14:21;9.53;;;7.33;;
11604;SDS011;5858;43.076;25.626;2024-02-16T16:16:49;17.13;;;12.73;;
11604;SDS011;5858;43.076;25.626;2024-02-16T16:19:19;19.33;;;12.33;;
11604;SDS011;5858;43.076;25.626;2024-02-16T16:21:47;85.20;;;39.17;;
11604;SDS011;5858;43.076;25.626;2024-02-16T16:27:39;17.50;;;12.43;;
11604;SDS011;5858;43.076;25.626;2024-02-16T16:30:16;31.03;;;22.80;;
11604;SDS011;5858;43.076;25.626;2024-02-16T16:32:47;19.50;;;12.60;;
11604;SDS011;5858;43.076;25.626;2024-02-16T16:35:18;21.80;;;11.63;;
11604;SDS011;5858;43.076;25.626;2024-02-16T16:37:53;15.17;;;10.10;;
11604;SDS011;5858;43.076;25.626;2024-02-16T16:40:26;13.40;;;9.27;;
11604;SDS011;5858;43.076;25.626;2024-02-16T16:42:55;17.17;;;10.87;;
11604;SDS011;5858;43.076;25.626;2024-02-16T16:45:29;20.43;;;12.67;;
11604;SDS011;5858;43.076;25.626;2024-02-16T16:47:57;13.47;;;11.57;;
11604;SDS011;5858;43.076;25.626;2024-02-16T16:50:28;20.20;;;13.53;;
11604;SDS011;5858;43.076;25.626;2024-02-16T16:52:56;20.13;;;12.80;;
11604;SDS011;5858;43.076;25.626;2024-02-16T16:55:25;19.03;;;13.53;;
11604;SDS011;5858;43.076;25.626;2024-02-16T16:58:18;16.03;;;13.07;;
11604;SDS011;5858;43.076;25.626;2024-02-16T17:00:51;18.87;;;13.23;;
11604;SDS011;5858;43.076;25.626;2024-02-16T17:03:29;16.53;;;12.90;;
11604;SDS011;5858;43.076;25.626;2024-02-16T17:06:28;21.00;;;12.37;;
11604;SDS011;5858;43.076;25.626;2024-02-16T17:20:41;13.47;;;10.20;;
11604;SDS011;5858;43.076;25.626;2024-02-16T17:44:29;20.20;;;15.60;;
11604;SDS011;5858;43.076;25.626;2024-02-16T17:50:25;17.17;;;11.80;;
11604;SDS011;5858;43.076;25.626;2024-02-16T17:56:22;12.57;;;9.73;;
11604;SDS011;5858;43.076;25.626;2024-02-16T18:16:07;14.13;;;10.20;;
11604;SDS011;5858;43.076;25.626;2024-02-16T18:18:53;10.17;;;9.13;;
11604;SDS011;5858;43.076;25.626;2024-02-16T18:21:56;11.97;;;9.43;;
11604;SDS011;5858;43.076;25.626;2024-02-16T18:39:04;14.67;;;11.23;;
11604;SDS011;5858;43.076;25.626;2024-02-16T18:42:22;11.97;;;10.47;;
11604;SDS011;5858;43.076;25.626;2024-02-16T18:48:57;31.00;;;22.43;;
11604;SDS011;5858;43.076;25.626;2024-02-16T19:35:00;10.17;;;7.90;;
11604;SDS011;5858;43.076;25.626;2024-02-16T19:41:05;10.37;;;9.27;;
11604;SDS011;5858;43.076;25.626;2024-02-16T19:47:46;10.87;;;8.40;;
11604;SDS011;5858;43.076;25.626;2024-02-16T19:54:21;12.03;;;8.87;;
11604;SDS011;5858;43.076;25.626;2024-02-16T19:57:45;9.83;;;8.63;;
11604;SDS011;5858;43.076;25.626;2024-02-16T20:00:41;12.77;;;9.43;;
11604;SDS011;5858;43.076;25.626;2024-02-16T20:13:57;16.73;;;9.93;;
11604;SDS011;5858;43.076;25.626;2024-02-16T20:17:03;17.77;;;12.33;;
11604;SDS011;5858;43.076;25.626;2024-02-16T20:19:36;15.03;;;12.27;;
11604;SDS011;5858;43.076;25.626;2024-02-16T20:22:42;16.53;;;12.13;;
11604;SDS011;5858;43.076;25.626;2024-02-16T20:49:32;13.60;;;11.03;;
11604;SDS011;5858;43.076;25.626;2024-02-16T20:55:41;22.07;;;16.23;;
11604;SDS011;5858;43.076;25.626;2024-02-16T20:58:34;18.97;;;13.53;;
11604;SDS011;5858;43.076;25.626;2024-02-16T21:01:31;18.67;;;13.67;;
11604;SDS011;5858;43.076;25.626;2024-02-16T21:04:29;22.67;;;15.20;;
11604;SDS011;5858;43.076;25.626;2024-02-16T21:08:14;19.30;;;13.87;;
11604;SDS011;5858;43.076;25.626;2024-02-16T21:14:03;12.73;;;10.33;;
11604;SDS011;5858;43.076;25.626;2024-02-16T21:23:25;16.33;;;11.60;;
11604;SDS011;5858;43.076;25.626;2024-02-16T21:26:18;25.20;;;16.17;;
11604;SDS011;5858;43.076;25.626;2024-02-16T21:29:00;31.43;;;17.70;;
11604;SDS011;5858;43.076;25.626;2024-02-16T21:31:29;32.20;;;19.80;;
11604;SDS011;5858;43.076;25.626;2024-02-16T21:43:39;27.07;;;15.20;;
11604;SDS011;5858;43.076;25.626;2024-02-16T21:49:12;24.97;;;15.50;;
11604;SDS011;5858;43.076;25.626;2024-02-16T21:52:05;22.73;;;15.77;;
11604;SDS011;5858;43.076;25.626;2024-02-16T21:58:04;21.77;;;15.37;;
11604;SDS011;5858;43.076;25.626;2024-02-16T22:01:08;21.30;;;13.27;;
11604;SDS011;5858;43.076;25.626;2024-02-16T22:07:51;18.17;;;11.90;;
11604;SDS011;5858;43.076;25.626;2024-02-16T22:14:48;15.57;;;12.20;;
11604;SDS011;5858;43.076;25.626;2024-02-16T22:17:58;14.77;;;11.63;;
11604;SDS011;5858;43.076;25.626;2024-02-16T22:21:12;19.43;;;13.67;;
11604;SDS011;5858;43.076;25.626;2024-02-16T22:24:50;16.20;;;11.67;;
11604;SDS011;5858;43.076;25.626;2024-02-16T22:41:05;14.33;;;11.83;;
11604;SDS011;5858;43.076;25.626;2024-02-16T22:44:18;14.30;;;11.57;;
11604;SDS011;5858;43.076;25.626;2024-02-16T22:47:05;17.67;;;12.10;;
11604;SDS011;5858;43.076;25.626;2024-02-16T22:49:43;25.53;;;13.03;;
11604;SDS011;5858;43.076;25.626;2024-02-16T22:52:20;16.53;;;11.90;;
11604;SDS011;5858;43.076;25.626;2024-02-16T22:54:51;17.20;;;12.33;;
11604;SDS011;5858;43.076;25.626;2024-02-16T22:57:23;15.97;;;11.87;;
11604;SDS011;5858;43.076;25.626;2024-02-16T23:00:07;17.57;;;11.80;;
11604;SDS011;5858;43.076;25.626;2024-02-16T23:02:49;15.57;;;11.77;;
11604;SDS011;5858;43.076;25.626;2024-02-16T23:05:18;17.23;;;12.13;;
11604;SDS011;5858;43.076;25.626;2024-02-16T23:07:53;26.70;;;15.30;;
11604;SDS011;5858;43.076;25.626;2024-02-16T23:10:26;19.93;;;14.37;;
11604;SDS011;5858;43.076;25.626;2024-02-16T23:12:58;23.03;;;13.70;;
11604;SDS011;5858;43.076;25.626;2024-02-16T23:15:39;18.60;;;13.67;;
11604;SDS011;5858;43.076;25.626;2024-02-16T23:18:16;19.43;;;12.90;;
11604;SDS011;5858;43.076;25.626;2024-02-16T23:20:52;18.37;;;13.17;;
11604;SDS011;5858;43.076;25.626;2024-02-16T23:23:38;18.30;;;13.10;;
11604;SDS011;5858;43.076;25.626;2024-02-16T23:29:36;30.63;;;19.77;;
11604;SDS011;5858;43.076;25.626;2024-02-16T23:42:47;67.07;;;41.20;;
11604;SDS011;5858;43.076;25.626;2024-02-16T23:45:23;55.03;;;34.73;;
